Latest Coastal Weather Observations for St Lawrence

IDQ60701

Issued at 8:31 am EST Wednesday 23 August 2017 (issued every 10 minutes, with the page automatically refreshed every 10 minutes)

About coastal observations | Map of coastal stations | Coastal observations for QLD | Marine services | Other Formats
Station Details ID: 033210 Name: ST LAWRENCE Lat: -22.35 Lon: 149.52 Height: 9.19 m
Data from the previous 72 hours. | See also: Recent months at St Lawrence
Date/Time
EST
Temp
°C
Wind Pressure Rain since
9am
mm
Weather Cloud Vis
km
Sea
Height
m
Swell
Dir  Spd
kts
Gust
kts
hPa Trend Height
m
Period
s
Dir
23/08:30am 20.8 WSW 2 4 1020.7 - 0.0 - - - - - - -
23/08:00am 18.2 SW 1 4 1020.5 - 0.0 - - - - - - -
23/07:30am 16.3 WSW 3 4 1020.1 - 0.0 - - - - - - -
23/07:00am 14.5 W 4 4 1019.6 - 0.0 - - - - - - -
23/06:30am 13.1 SW 1 3 1019.4 - 0.0 - - - - - - -
23/06:00am 14.1 S 3 4 1019.1 - 0.0 - - - - - - -
23/05:30am 13.4 CALM 0 0 1018.9 - 0.0 - - - - - - -
23/05:00am 14.1 CALM 0 0 1018.7 - 0.0 - - - - - - -
23/04:30am 14.5 SSE 1 3 1018.7 - 0.0 - - - - - - -
23/04:00am 14.7 CALM 0 2 1018.6 - 0.0 - - - - - - -
23/03:30am 14.3 S 1 4 1018.6 - 0.0 - - - - - - -
23/03:00am 15.3 SSE 1 4 1018.7 - 0.0 - - - - - - -
23/02:30am 15.1 CALM 0 0 1018.6 - 0.0 - - - - - - -
23/02:00am 15.7 CALM 0 0 1018.8 - 0.0 - - - - - - -
23/01:30am 16.2 WSW 3 4 1019.0 - 0.0 - - - - - - -
23/01:00am 16.9 CALM 0 0 1019.3 - 0.0 - - - - - - -
23/12:30am 16.3 CALM 0 0 1019.7 - 0.0 - - - - - - -
23/12:00am 16.7 CALM 0 0 1019.9 - 0.0 - - - - - - -
 
Date/Time
EST
Temp
°C
Wind Pressure Rain since
9am
mm
Weather Cloud Vis
km
Sea
Height
m
Swell
Dir  Spd
kts
Gust
kts
hPa Trend Height
m
Period
s
Dir
22/11:30pm 17.9 CALM 0 0 1019.9 - 0.0 - - - - - - -
22/11:00pm 17.6 CALM 0 0 1019.7 - 0.0 - - - - - - -
22/10:30pm 17.8 CALM 0 0 1019.5 - 0.0 - - - - - - -
22/10:00pm 18.4 CALM 0 0 1019.4 - 0.0 - - - - - - -
22/09:30pm 18.8 N 3 4 1019.3 - 0.0 - - - - - - -
22/09:00pm 20.0 NNE 5 7 1019.2 - 0.0 - - - - - - -
22/08:30pm 19.9 NNE 5 7 1019.0 - 0.0 - - - - - - -
22/08:00pm 20.0 NNE 5 6 1018.8 - 0.0 - - - - - - -
22/07:30pm 20.5 NNE 6 8 1018.5 - 0.0 - - - - - - -
22/07:00pm 20.7 NNE 6 8 1018.2 - 0.0 - - - - - - -
22/06:30pm 21.1 N 7 9 1017.8 - 0.0 - - - - - - -
22/06:00pm 21.6 NNE 8 11 1017.5 - 0.0 - - - - - - -
22/05:30pm 22.2 NNE 8 11 1017.1 - 0.0 - - - - - - -
22/05:00pm 23.0 NNE 9 13 1016.9 - 0.0 - - - - - - -
22/04:30pm 23.6 NNE 9 13 1016.5 - 0.0 - - - - - - -
22/04:00pm 23.9 NNE 10 14 1016.3 - 0.0 - - - - - - -
22/03:30pm 24.0 NNE 11 16 1016.3 - 0.0 - - - - - - -
22/03:00pm 24.4 NE 11 14 1016.3 - 0.0 - - - - - - -
22/02:30pm 24.4 NNE 11 15 1016.3 - 0.0 - - - - - - -
22/02:00pm 24.5 NNE 11 16 1016.5 - 0.0 - - - - - - -
22/01:30pm 24.7 NNE 11 14 1016.9 - 0.0 - - - - - - -
22/01:00pm 25.1 NNE 9 14 1017.2 - 0.0 - - - - - - -
22/12:30pm 24.8 NNE 9 12 1017.7 - 0.0 - - - - - - -
22/12:00pm 25.3 NNE 9 13 1018.2 - 0.0 - - - - - - -
22/11:30am 24.3 NNE 9 12 1018.7 - 0.0 - - - - - - -
22/11:00am 24.2 NNE 8 11 1019.1 - 0.0 - - - - - - -
22/10:30am 23.9 NNE 8 11 1019.4 - 0.0 - - - - - - -
22/10:00am 23.3 NNE 6 9 1019.6 - 0.0 - - - - - - -
22/09:30am 22.3 NNE 6 8 1019.6 - 0.0 - - - - - - -
22/09:00am 22.0 NNE 2 4 1019.7 - 0.0 - - - - - - -
22/08:30am 19.8 N 3 4 1019.7 - 0.0 - - - - - - -
22/08:00am 18.6 SE 1 4 1019.6 - 0.0 - - - - - - -
22/07:30am 15.7 CALM 0 0 1019.4 - 0.0 - - - - - - -
22/07:00am 13.7 S 2 4 1019.3 - 0.0 - - - - - - -
22/06:30am 12.7 SSW 2 4 1019.0 - 0.0 - - - - - - -
22/06:00am 12.8 SW 2 4 1018.7 - 0.0 - - - - - - -
22/05:30am 13.1 SW 3 4 1018.5 - 0.0 - - - - - - -
22/05:00am 12.8 CALM 0 0 1018.2 - 0.0 - - - - - - -
22/04:30am 13.0 SSE 2 5 1017.9 - 0.0 - - - - - - -
22/04:00am 14.5 S 4 5 1017.8 - 0.0 - - - - - - -
22/03:30am 14.2 CALM 0 0 1017.5 - 0.0 - - - - - - -
22/03:00am 14.1 W 1 4 1017.5 - 0.0 - - - - - - -
22/02:30am 14.9 CALM 0 0 1017.5 - 0.0 - - - - - - -
22/02:00am 15.2 S 3 3 1018.0 - 0.0 - - - - - - -
22/01:30am 14.7 SW 2 4 1018.2 - 0.0 - - - - - - -
22/01:00am 14.8 SW 2 4 1018.3 - 0.0 - - - - - - -
22/12:30am 15.2 WSW 3 4 1018.7 - 0.0 - - - - - - -
22/12:00am 15.3 WSW 2 4 1019.0 - 0.0 - - - - - - -
 
Date/Time
EST
Temp
°C
Wind Pressure Rain since
9am
mm
Weather Cloud Vis
km
Sea
Height
m
Swell
Dir  Spd
kts
Gust
kts
hPa Trend Height
m
Period
s
Dir
21/11:30pm 15.5 WSW 3 5 1019.1 - 0.0 - - - - - - -
21/11:00pm 14.7 WSW 3 4 1019.2 - 0.0 - - - - - - -
21/10:30pm 14.9 WSW 4 5 1019.2 - 0.0 - - - - - - -
21/10:00pm 14.7 CALM 0 3 1019.2 - 0.0 - - - - - - -
21/09:30pm 14.8 CALM 0 0 1019.3 - 0.0 - - - - - - -
21/09:00pm 15.3 CALM 0 0 1019.4 - 0.0 - - - - - - -
21/08:30pm 16.2 CALM 0 0 1019.4 - 0.0 - - - - - - -
21/08:00pm 16.8 NNE 3 4 1018.9 - 0.0 - - - - - - -
21/07:30pm 17.2 N 3 4 1018.7 - 0.0 - - - - - - -
21/07:00pm 17.2 CALM 0 0 1018.4 - 0.0 - - - - - - -
21/06:30pm 18.4 CALM 0 0 1018.2 - 0.0 - - - - - - -
21/06:00pm 20.0 N 6 8 1017.9 - 0.0 - - - - - - -
21/05:30pm 21.0 NNE 8 11 1017.5 - 0.0 - - - - - - -
21/05:00pm 21.9 NNE 7 10 1017.6 - 0.0 - - - - - - -
21/04:30pm 22.5 NNE 7 9 1017.6 - 0.0 - - - - - - -
21/04:00pm 22.2 NNE 8 11 1017.5 - 0.0 - - - - - - -
21/03:30pm 22.7 NNE 7 9 1017.5 - 0.0 - - - - - - -
21/03:00pm 22.7 NNE 7 10 1017.8 - 0.0 - - - - - - -
21/02:30pm 22.8 NNE 9 11 1017.7 - 0.0 - - - - - - -
21/02:00pm 23.6 NNE 8 11 1018.0 - 0.0 - - - - - - -
21/01:30pm 22.7 N 7 9 1018.4 - 0.0 - - - - - - -
21/01:00pm 22.9 NNE 9 12 1018.7 - 0.0 - - - - - - -
21/12:30pm 22.8 NNE 8 10 1019.0 - 0.0 - - - - - - -
21/12:00pm 22.7 NE 9 15 1019.5 - 0.0 - - - - - - -
21/11:30am 23.0 ENE 7 13 1020.1 - 0.0 - - - - - - -
21/11:00am 21.9 NE 6 9 1020.5 - 0.0 - - - - - - -
21/10:30am 21.3 SSE 4 9 1020.8 - 0.0 - - - - - - -
21/10:00am 21.1 SSE 5 10 1021.1 - 0.0 - - - - - - -
21/09:30am 18.9 S 5 7 1021.2 - 0.0 - - - - - - -
21/09:00am 16.9 SSW 4 7 1021.0 - 0.0 - - - - - - -
21/08:30am 14.4 S 4 5 1020.9 - 0.0 - - - - - - -
21/08:00am 12.4 S 4 7 1020.5 - 0.0 - - - - - - -
21/07:30am 9.4 S 4 6 1020.2 - 0.0 - - - - - - -
21/07:00am 6.7 SW 3 4 1019.9 - 0.0 - - - - - - -
21/06:30am 6.3 S 1 3 1019.4 - 0.0 - - - - - - -
21/06:00am 7.2 SSE 3 5 1019.0 - 0.0 - - - - - - -
21/05:30am 5.8 CALM 0 0 1018.8 - 0.0 - - - - - - -
21/05:00am 7.2 SSW 3 5 1018.6 - 0.0 - - - - - - -
21/04:30am 7.4 SW 4 5 1018.5 - 0.0 - - - - - - -
21/04:00am 7.5 WSW 5 6 1018.6 - 0.0 - - - - - - -
21/03:30am 6.9 SW 3 4 1018.6 - 0.0 - - - - - - -
21/03:00am 6.8 WSW 1 3 1018.9 - 0.0 - - - - - - -
21/02:30am 6.6 WSW 3 4 1019.0 - 0.0 - - - - - - -
21/02:00am 6.6 WSW 3 3 1019.2 - 0.0 - - - - - - -
21/01:30am 6.9 SSW 2 4 1019.3 - 0.0 - - - - - - -
21/01:00am 7.9 SSW 4 5 1019.3 - 0.0 - - - - - - -
21/12:30am 7.5 WSW 3 4 1019.3 - 0.0 - - - - - - -
21/12:00am 7.8 SW 3 4 1019.6 - 0.0 - - - - - - -
 
Date/Time
EST
Temp
°C
Wind Pressure Rain since
9am
mm
Weather Cloud Vis
km
Sea
Height
m
Swell
Dir  Spd
kts
Gust
kts
hPa Trend Height
m
Period
s
Dir
20/11:30pm 8.6 SW 3 4 1019.7 - 0.0 - - - - - - -
20/11:00pm 9.3 SW 4 5 1019.7 - 0.0 - - - - - - -
20/10:30pm 9.7 SW 4 5 1020.0 - 0.0 - - - - - - -
20/10:00pm 10.2 WSW 3 5 1020.1 - 0.0 - - - - - - -
20/09:30pm 10.3 WSW 3 5 1020.2 - 0.0 - - - - - - -
20/09:00pm 10.1 CALM 0 0 1020.4 - 0.0 - - - - - - -
20/08:30pm 11.3 WSW 2 3 1020.2 - 0.0 - - - - - - -
20/08:00pm 11.8 WNW 1 4 1020.1 - 0.0 - - - - - - -
20/07:30pm 13.3 ENE 3 6 1019.7 - 0.0 - - - - - - -
20/07:00pm 15.0 ESE 4 5 1019.2 - 0.0 - - - - - - -
20/06:30pm 14.6 ESE 3 4 1018.8 - 0.0 - - - - - - -
20/06:00pm 16.6 E 2 3 1018.4 - 0.0 - - - - - - -
20/05:30pm 20.1 ESE 4 5 1018.3 - 0.0 - - - - - - -
20/05:00pm 21.0 SE 7 9 1018.0 - 0.0 - - - - - - -
20/04:30pm 21.2 SE 6 10 1017.8 - 0.0 - - - - - - -
20/04:00pm 21.5 SSE 6 10 1017.6 - 0.0 - - - - - - -
20/03:30pm 22.2 S 6 10 1017.6 - 0.0 - - - - - - -
20/03:00pm 21.9 SSW 6 12 1017.5 - 0.0 - - - - - - -
20/02:30pm 21.1 SSE 9 14 1017.8 - 0.0 - - - - - - -
20/02:00pm 20.5 S 9 16 1018.2 - 0.0 - - - - - - -
20/01:30pm 20.6 S 10 14 1018.6 - 0.0 - - - - - - -
20/01:00pm 20.7 S 8 15 1018.7 - 0.0 - - - - - - -
20/12:30pm 20.5 S 11 22 1019.5 - 0.0 - - - - - - -
20/12:00pm 19.6 S 9 16 1020.1 - 0.0 - - - - - - -
20/11:30am 18.7 S 10 17 1020.5 - 0.0 - - - - - - -
20/11:00am 18.7 S 9 15 1021.1 - 0.0 - - - - - - -
20/10:30am 17.6 S 10 16 1021.5 - 0.0 - - - - - - -
20/10:00am 16.7 S 10 15 1021.9 - 0.0 - - - - - - -
20/09:30am 16.6 S 11 18 1022.1 - 0.0 - - - - - - -
20/09:00am 15.8 S 9 13 1022.1 - 0.0 - - - - - - -

Other Formats:

Comma delimited format used in spreadsheet applications
http://www.bom.gov.au/fwo/IDQ60701/IDQ60701.95369.axf

JavaScript Object Notation format (JSON) in row-major order
http://www.bom.gov.au/fwo/IDQ60701/IDQ60701.95369.json